Time;durP1;ratioP1;P1;durP2;ratioP2;P2;SDS_P1;SDS_P2;PMS_P1;PMS_P2;Temp;Humidity;BMP_temperature;BMP_pressure;BME280_temperature;BME280_humidity;BME280_pressure;Samples;Min_cycle;Max_cycle;Signal;HPM_P1;HPM_P2
2024/01/24 00:02:05;;;;;;;;;0.00;0.00;;;;;13.85;78.37;101913.06;4994280;28;45055;-82
2024/01/24 00:04:31;;;;;;;;;0.00;0.00;;;;;14.49;78.48;102011.63;4997009;28;45999;-81
2024/01/24 00:06:56;;;;;;;;;0.00;0.00;;;;;13.77;78.23;101891.50;4995983;28;45130;-81
2024/01/24 00:09:21;;;;;;;;;1.00;0.00;;;;;13.88;77.85;101928.84;4994629;28;44947;-84
2024/01/24 00:11:47;;;;;;;;;1.00;0.00;;;;;14.48;78.12;102026.84;4994375;28;45162;-82
2024/01/24 00:14:13;;;;;;;;;0.00;0.00;;;;;14.49;78.34;102027.69;4994081;28;45922;-80
2024/01/24 00:16:39;;;;;;;;;0.75;0.00;;;;;14.50;78.22;102040.06;4992207;28;45237;-82
2024/01/24 00:19:04;;;;;;;;;0.00;0.00;;;;;13.86;78.10;101912.94;4989684;28;44975;-82
2024/01/24 00:21:29;;;;;;;;;0.00;0.00;;;;;14.52;77.99;102022.06;4991608;28;45253;-81
2024/01/24 00:23:55;;;;;;;;;0.00;0.00;;;;;14.16;77.56;101962.81;4975872;28;45373;-81
2024/01/24 00:26:20;;;;;;;;;0.00;0.00;;;;;14.30;77.99;101988.31;4995988;28;44878;-81
2024/01/24 00:28:45;;;;;;;;;0.00;0.00;;;;;13.62;77.75;101873.22;4993370;28;45142;-80
2024/01/24 00:31:11;;;;;;;;;0.00;0.00;;;;;13.36;77.80;101829.22;4993771;28;45571;-85
2024/01/24 00:33:37;;;;;;;;;0.00;0.00;;;;;14.21;77.82;101971.25;4979158;28;47158;-82
2024/01/24 00:36:02;;;;;;;;;0.00;0.00;;;;;13.99;77.91;101932.22;4995837;28;45231;-83
2024/01/24 00:38:28;;;;;;;;;0.00;0.00;;;;;14.36;78.07;101994.94;4994802;28;45405;-81
2024/01/24 00:40:53;;;;;;;;;0.25;0.00;;;;;14.23;78.12;101973.81;4994985;28;45430;-83
2024/01/24 00:43:19;;;;;;;;;0.00;0.00;;;;;14.53;77.85;102045.16;4993815;28;45647;-84
2024/01/24 00:45:44;;;;;;;;;0.00;0.00;;;;;14.46;77.94;102022.63;4992165;28;45022;-83
2024/01/24 00:48:11;;;;;;;;;0.00;0.00;;;;;13.81;77.74;101919.66;4994836;28;45156;-81
2024/01/24 00:50:39;;;;;;;;;0.00;0.00;;;;;14.33;77.95;102001.41;4994913;28;44996;-82
2024/01/24 00:53:05;;;;;;;;;0.00;0.00;;;;;14.58;77.79;102042.91;4995991;28;45599;-81
2024/01/24 00:55:30;;;;;;;;;0.00;0.00;;;;;14.39;77.77;102013.41;5000563;28;45161;-80
2024/01/24 00:57:56;;;;;;;;;0.00;0.00;;;;;14.19;78.31;101991.09;5002421;28;45298;-80
2024/01/24 01:00:22;;;;;;;;;1.00;0.00;;;;;14.49;77.99;102033.03;5001981;28;45282;-83
2024/01/24 01:02:48;;;;;;;;;0.00;0.00;;;;;14.64;78.07;102052.22;4996762;28;45164;-84
2024/01/24 01:05:13;;;;;;;;;0.00;0.00;;;;;14.44;78.06;102016.56;4979896;28;45071;-82
2024/01/24 01:07:38;;;;;;;;;0.00;0.00;;;;;14.62;78.06;102049.69;4992585;28;45345;-82
2024/01/24 01:10:07;;;;;;;;;0.00;0.00;;;;;14.24;78.70;102002.25;4996193;28;45209;-81
2024/01/24 01:12:32;;;;;;;;;0.00;0.00;;;;;14.48;78.64;102026.00;4997342;28;45703;-80
2024/01/24 01:14:58;;;;;;;;;0.00;0.00;;;;;13.48;78.16;101864.72;4998905;28;45063;-81
2024/01/24 01:17:23;;;;;;;;;0.00;0.00;;;;;14.43;78.62;102015.72;4978655;28;44947;-86
2024/01/24 01:19:48;;;;;;;;;0.00;0.00;;;;;14.52;78.24;102024.72;4994356;28;45328;-79
2024/01/24 01:22:14;;;;;;;;;0.25;0.00;;;;;13.73;78.54;101904.31;4975167;28;47103;-80
2024/01/24 01:24:39;;;;;;;;;0.00;0.00;;;;;14.60;78.69;102046.28;4992281;28;46014;-81
2024/01/24 01:27:04;;;;;;;;;0.00;0.00;;;;;13.63;79.14;101906.97;4973931;28;45139;-82
2024/01/24 01:29:30;;;;;;;;;0.00;0.00;;;;;14.61;79.12;102054.16;4993768;28;45315;-81
2024/01/24 01:31:55;;;;;;;;;0.00;0.00;;;;;14.21;79.84;101991.81;4993007;28;46139;-80
2024/01/24 01:34:21;;;;;;;;;0.00;0.00;;;;;14.58;80.02;102029.50;4991976;28;45296;-81
2024/01/24 01:36:46;;;;;;;;;0.00;0.00;;;;;14.56;80.65;102039.50;4994206;28;45313;-79
2024/01/24 01:39:12;;;;;;;;;0.00;0.00;;;;;14.50;81.04;102034.72;4991849;28;45404;-82
2024/01/24 01:41:37;;;;;;;;;0.00;0.00;;;;;13.42;80.99;101863.44;4994145;28;45058;-80
2024/01/24 01:44:03;;;;;;;;;0.00;0.00;;;;;14.49;81.32;102043.75;5000793;28;45010;-79
2024/01/24 01:46:29;;;;;;;;;1.00;0.00;;;;;14.22;81.62;101994.38;4992734;28;45194;-81
2024/01/24 01:48:57;;;;;;;;;0.00;0.00;;;;;13.94;81.42;101952.34;4992880;28;45245;-81
2024/01/24 01:51:23;;;;;;;;;0.00;0.00;;;;;14.41;81.83;102051.56;4996386;28;45775;-82
2024/01/24 01:53:49;;;;;;;;;0.00;0.00;;;;;13.77;81.92;101955.66;4981348;28;45229;-81
2024/01/24 01:56:18;;;;;;;;;0.00;0.00;;;;;14.19;82.03;102021.38;4996435;28;44956;-81
2024/01/24 01:58:46;;;;;;;;;0.00;0.00;;;;;14.39;81.93;102069.59;4979637;28;45271;-84
2024/01/24 02:01:13;;;;;;;;;0.00;0.00;;;;;14.40;81.87;102071.28;4994883;28;45949;-82
2024/01/24 02:03:39;;;;;;;;;0.00;0.00;;;;;14.40;82.15;102068.59;4976694;28;45109;-83
2024/01/24 02:06:05;;;;;;;;;0.00;0.00;;;;;14.35;82.61;102076.19;4990699;28;45008;-84
2024/01/24 02:08:34;;;;;;;;;0.00;0.00;;;;;14.06;82.20;102030.63;4997101;28;45219;-83
2024/01/24 02:11:00;;;;;;;;;0.00;0.00;;;;;14.29;82.24;102062.38;4997252;28;46635;-81
2024/01/24 02:13:31;;;;;;;;;3.00;2.75;;;;;13.39;82.16;101898.41;4995319;28;45102;-82
2024/01/24 02:16:00;;;;;;;;;0.00;0.00;;;;;14.25;82.47;102036.91;4989577;28;45499;-83
2024/01/24 02:18:26;;;;;;;;;1.00;1.00;;;;;13.91;82.69;101990.03;4995777;28;45023;-84
2024/01/24 02:20:52;;;;;;;;;0.00;0.00;;;;;14.17;82.81;102028.69;4988551;28;47221;-83
2024/01/24 02:23:19;;;;;;;;;0.00;0.00;;;;;13.82;83.15;101996.22;4995712;28;44917;-84
2024/01/24 02:25:45;;;;;;;;;0.00;0.00;;;;;14.09;83.50;102049.09;4995994;28;45154;-80
2024/01/24 02:28:10;;;;;;;;;0.00;0.00;;;;;13.23;83.60;101920.28;4998106;28;44863;-82
2024/01/24 02:30:35;;;;;;;;;0.00;0.00;;;;;14.10;83.68;102061.47;4994206;28;45910;-83
2024/01/24 02:33:01;;;;;;;;;0.00;0.00;;;;;14.08;83.66;102061.59;4995078;28;44943;-79
2024/01/24 02:35:27;;;;;;;;;0.00;0.00;;;;;14.08;84.21;102058.94;4997664;28;44980;-83
2024/01/24 02:37:53;;;;;;;;;0.00;0.00;;;;;13.30;83.91;101936.63;4976267;28;45269;-83
2024/01/24 02:40:19;;;;;;;;;0.00;0.00;;;;;14.07;83.88;102070.63;4992304;28;45325;-86
2024/01/24 02:42:44;;;;;;;;;0.00;0.00;;;;;13.88;83.72;102033.09;4994001;28;44876;-80
2024/01/24 02:45:09;;;;;;;;;0.00;0.00;;;;;12.70;83.58;101839.44;4992258;28;45093;-79
2024/01/24 02:47:35;;;;;;;;;0.00;0.00;;;;;13.35;83.73;101945.06;4993844;28;45146;-81
2024/01/24 02:50:02;;;;;;;;;0.00;0.00;;;;;14.13;83.67;102066.53;4997197;28;45035;-81
2024/01/24 02:52:28;;;;;;;;;0.00;0.00;;;;;14.14;83.42;102066.41;4998555;28;44991;-81
2024/01/24 02:54:53;;;;;;;;;0.00;0.00;;;;;14.16;82.86;102069.78;4998415;28;45150;-81
2024/01/24 02:57:19;;;;;;;;;0.00;0.00;;;;;12.21;82.91;101739.56;5001162;28;45272;-81
2024/01/24 02:59:44;;;;;;;;;0.00;0.00;;;;;14.20;82.84;102071.19;5001239;28;45572;-80
2024/01/24 03:02:10;;;;;;;;;0.00;0.00;;;;;13.99;82.58;102036.50;4983620;28;45036;-80
2024/01/24 03:04:35;;;;;;;;;0.00;0.00;;;;;12.99;82.25;101867.13;4998803;28;45131;-79
2024/01/24 03:07:00;;;;;;;;;0.00;0.00;;;;;12.61;82.24;101794.84;4978690;28;45154;-81
2024/01/24 03:09:26;;;;;;;;;0.00;0.00;;;;;13.81;82.40;101999.84;4994759;28;45178;-81
2024/01/24 03:11:52;;;;;;;;;0.00;0.00;;;;;14.15;82.17;102049.38;4995117;28;44801;-81
2024/01/24 03:14:21;;;;;;;;;0.00;0.00;;;;;14.24;81.95;102067.31;4995158;28;45284;-83
2024/01/24 03:16:46;;;;;;;;;0.00;0.00;;;;;13.62;81.74;101963.22;4994677;28;45085;-82
2024/01/24 03:19:11;;;;;;;;;0.00;0.00;;;;;13.94;81.79;102024.53;4995729;28;45281;-81
2024/01/24 03:21:37;;;;;;;;;0.00;0.00;;;;;14.31;81.83;102063.09;4996735;28;44969;-84
2024/01/24 03:24:04;;;;;;;;;0.00;0.00;;;;;13.39;81.94;101935.81;4998208;28;45025;-83
2024/01/24 03:26:30;;;;;;;;;0.00;0.00;;;;;14.09;81.49;102035.72;4980323;28;45135;-82
2024/01/24 03:28:55;;;;;;;;;0.00;0.00;;;;;14.37;81.53;102080.41;4992959;28;46615;-83
2024/01/24 03:31:21;;;;;;;;;0.00;0.00;;;;;13.70;81.37;101956.19;4996544;28;45153;-82
2024/01/24 03:33:46;;;;;;;;;0.00;0.00;;;;;14.38;80.94;102068.72;4977404;28;45289;-82
2024/01/24 03:36:12;;;;;;;;;0.00;0.00;;;;;14.39;81.21;102083.81;4994086;28;44924;-82
2024/01/24 03:38:37;;;;;;;;;0.00;0.00;;;;;13.24;80.61;101873.06;4993887;28;45597;-82
2024/01/24 03:41:02;;;;;;;;;0.00;0.00;;;;;14.01;80.42;101996.25;4996054;28;45259;-82
2024/01/24 03:43:28;;;;;;;;;0.00;0.00;;;;;14.41;80.13;102062.25;4999197;28;45187;-84
2024/01/24 03:45:53;;;;;;;;;0.00;0.00;;;;;14.41;80.33;102046.22;4981655;28;45922;-82
2024/01/24 03:48:19;;;;;;;;;0.00;0.00;;;;;14.41;80.32;102063.09;4977399;28;45101;-81
2024/01/24 03:50:44;;;;;;;;;0.00;0.00;;;;;13.60;80.32;101917.06;4996678;28;45114;-80
2024/01/24 03:53:09;;;;;;;;;0.00;0.00;;;;;13.31;80.06;101863.53;4997436;28;45131;-81
2024/01/24 03:55:35;;;;;;;;;0.00;0.00;;;;;14.14;80.20;102012.91;4995496;28;45160;-83
2024/01/24 03:58:00;;;;;;;;;0.00;0.00;;;;;14.04;80.26;101995.16;4995594;28;46125;-82
2024/01/24 04:00:27;;;;;;;;;0.00;0.00;;;;;14.39;80.38;102021.41;4998416;28;45033;-84
2024/01/24 04:02:53;;;;;;;;;0.00;0.00;;;;;13.64;80.14;101915.81;4998731;28;44928;-85
2024/01/24 04:05:18;;;;;;;;;0.00;0.00;;;;;14.37;80.14;102034.09;4998634;28;45120;-83
2024/01/24 04:07:44;;;;;;;;;0.00;0.00;;;;;13.30;80.08;101856.50;4997905;28;45477;-84
2024/01/24 04:10:09;;;;;;;;;0.00;0.00;;;;;14.44;80.31;102033.47;4995905;28;45004;-84
2024/01/24 04:12:35;;;;;;;;;0.00;0.00;;;;;13.46;80.10;101886.22;4994698;28;44939;-84
2024/01/24 04:15:00;;;;;;;;;0.00;0.00;;;;;14.45;80.25;102042.34;4995514;28;45103;-84
2024/01/24 04:17:26;;;;;;;;;0.00;0.00;;;;;14.32;80.14;102016.63;5009013;28;45248;-85
2024/01/24 04:19:51;;;;;;;;;0.00;0.00;;;;;13.56;80.21;101903.13;4998275;28;44853;-84
2024/01/24 04:22:17;;;;;;;;;0.00;0.00;;;;;13.34;79.48;101882.78;5001373;28;45121;-84
2024/01/24 04:24:43;;;;;;;;;0.00;0.00;;;;;12.74;79.63;101775.00;4992951;28;45272;-84
2024/01/24 04:27:08;;;;;;;;;0.00;0.00;;;;;14.49;80.01;102054.44;4974343;28;47268;-80
2024/01/24 04:29:34;;;;;;;;;0.00;0.00;;;;;13.58;79.47;101909.16;4997128;28;45115;-80
2024/01/24 04:31:59;;;;;;;;;0.00;0.00;;;;;14.50;79.84;102056.97;4998659;28;45045;-82
2024/01/24 04:34:25;;;;;;;;;0.00;0.00;;;;;13.45;79.32;101895.22;5001865;28;45148;-80
2024/01/24 04:36:50;;;;;;;;;0.00;0.00;;;;;14.07;79.75;102006.44;4998315;28;45167;-82
2024/01/24 04:39:16;;;;;;;;;0.00;0.00;;;;;13.65;79.83;101939.75;4997312;28;45156;-80
2024/01/24 04:41:43;;;;;;;;;0.00;0.00;;;;;13.99;79.83;101987.53;4996278;28;45176;-81
2024/01/24 04:44:09;;;;;;;;;0.00;0.00;;;;;14.49;79.69;102062.47;4993439;28;45148;-78
2024/01/24 04:46:35;;;;;;;;;0.00;0.00;;;;;13.79;79.66;101951.03;4993497;28;45310;-81
2024/01/24 04:49:00;;;;;;;;;0.00;0.00;;;;;14.28;79.45;102052.66;4977454;28;45153;-84
2024/01/24 04:51:27;;;;;;;;;0.00;0.00;;;;;14.53;79.55;102094.16;4978332;28;44944;-79
2024/01/24 04:53:53;;;;;;;;;0.00;0.00;;;;;14.57;79.27;102110.78;4996968;28;45267;-80
2024/01/24 04:56:18;;;;;;;;;0.00;0.00;;;;;14.59;79.05;102092.75;4978098;28;47498;-82
2024/01/24 04:58:44;;;;;;;;;0.00;0.00;;;;;14.14;79.08;102036.97;4997536;28;45102;-82
2024/01/24 05:01:11;;;;;;;;;0.00;0.00;;;;;14.39;79.36;102075.78;4995514;28;45418;-81
2024/01/24 05:03:36;;;;;;;;;0.00;0.00;;;;;14.66;78.87;102110.00;4995388;28;45085;-81
2024/01/24 05:06:02;;;;;;;;;0.00;0.00;;;;;14.68;79.04;102108.00;4995531;28;45266;-80
2024/01/24 05:08:28;;;;;;;;;0.00;0.00;;;;;14.19;79.20;102039.25;4993429;28;45285;-80
2024/01/24 05:10:53;;;;;;;;;0.00;0.00;;;;;14.67;79.09;102110.84;4993560;28;45804;-81
2024/01/24 05:13:19;;;;;;;;;0.00;0.00;;;;;14.57;78.80;102100.94;4995323;28;45189;-83
2024/01/24 05:15:44;;;;;;;;;0.00;0.00;;;;;14.66;78.44;102112.66;4995687;28;45444;-80
2024/01/24 05:18:09;;;;;;;;;0.00;0.00;;;;;14.31;78.53;102063.09;4997118;28;45058;-81
2024/01/24 05:20:37;;;;;;;;;0.00;0.00;;;;;14.75;78.58;102130.56;4997294;28;45243;-83
2024/01/24 05:23:03;;;;;;;;;0.00;0.00;;;;;14.17;78.17;102034.03;4998386;28;45230;-83
2024/01/24 05:25:30;;;;;;;;;0.00;0.00;;;;;14.28;78.11;102055.34;4993521;28;45644;-79
2024/01/24 05:27:56;;;;;;;;;0.00;0.00;;;;;13.66;77.46;101964.63;4995864;28;45483;-84
2024/01/24 05:30:21;;;;;;;;;0.00;0.00;;;;;14.18;78.14;102038.41;4992926;28;45252;-79
2024/01/24 05:32:46;;;;;;;;;0.00;0.00;;;;;14.42;77.97;102074.69;4996362;28;45251;-83
2024/01/24 05:35:12;;;;;;;;;0.00;0.00;;;;;14.87;78.25;102155.41;5003872;28;45165;-82
2024/01/24 05:37:37;;;;;;;;;0.00;0.00;;;;;14.86;78.47;102165.28;5017116;28;44982;-82
2024/01/24 05:40:05;;;;;;;;;0.00;0.00;;;;;14.17;78.19;102044.72;5004959;28;45078;-84
2024/01/24 05:42:30;;;;;;;;;0.00;0.00;;;;;14.87;78.68;102179.50;4997907;28;45290;-80
2024/01/24 05:44:55;;;;;;;;;0.00;0.00;;;;;14.68;78.70;102137.47;5001659;28;45339;-83
2024/01/24 05:47:20;;;;;;;;;0.00;0.00;;;;;14.78;78.57;102154.38;4996781;28;44939;-82
2024/01/24 05:49:47;;;;;;;;;0.00;0.00;;;;;14.52;79.05;102121.91;4995100;28;45130;-85
2024/01/24 05:52:13;;;;;;;;;0.00;0.00;;;;;13.98;78.69;102028.63;4996135;28;45419;-81
2024/01/24 05:54:38;;;;;;;;;0.00;0.00;;;;;14.75;78.78;102154.66;4997368;28;46142;-84
2024/01/24 05:57:04;;;;;;;;;0.00;0.00;;;;;14.47;78.82;102120.63;4997149;28;45203;-85
2024/01/24 05:59:29;;;;;;;;;0.00;0.00;;;;;15.00;78.65;102200.66;4996116;28;45154;-83
2024/01/24 06:01:55;;;;;;;;;0.00;0.00;;;;;15.00;78.53;102208.69;4995076;28;45138;-83
2024/01/24 06:04:20;;;;;;;;;0.00;0.00;;;;;14.97;78.84;102214.34;4994535;28;45513;-80
2024/01/24 06:06:45;;;;;;;;;0.00;0.00;;;;;14.98;78.63;102216.88;4994135;28;44932;-79
2024/01/24 06:09:11;;;;;;;;;0.00;0.00;;;;;15.00;78.47;102220.25;4977127;28;45361;-80
2024/01/24 06:11:37;;;;;;;;;0.00;0.00;;;;;14.42;78.66;102118.34;4994599;28;45265;-81
2024/01/24 06:14:03;;;;;;;;;0.00;0.00;;;;;15.00;78.49;102232.81;4988307;28;45364;-83
2024/01/24 06:16:28;;;;;;;;;0.00;0.00;;;;;14.33;78.87;102121.81;4984348;28;45456;-83
2024/01/24 06:18:53;;;;;;;;;0.00;0.00;;;;;14.78;78.87;102215.13;4980632;28;45556;-81
2024/01/24 06:21:20;;;;;;;;;0.00;0.00;;;;;14.62;79.25;102191.56;4988575;28;45517;-84
2024/01/24 06:23:46;;;;;;;;;0.00;0.00;;;;;14.68;79.68;102187.47;4997216;28;46517;-84
2024/01/24 06:26:11;;;;;;;;;0.00;0.00;;;;;15.01;79.91;102264.81;4995619;28;44920;-85
2024/01/24 06:28:37;;;;;;;;;0.00;0.00;;;;;15.02;80.22;102273.72;4997504;28;44920;-82
2024/01/24 06:31:02;;;;;;;;;0.00;0.00;;;;;14.98;80.50;102273.13;4994985;28;45649;-80
2024/01/24 06:33:28;;;;;;;;;0.00;0.00;;;;;15.03;80.80;102284.28;4990623;28;45940;-83
2024/01/24 06:35:53;;;;;;;;;1.00;0.00;;;;;15.04;80.85;102290.50;4996240;28;45124;-81
2024/01/24 06:38:19;;;;;;;;;0.00;0.00;;;;;14.58;81.35;102208.84;4999613;28;45160;-79
2024/01/24 06:40:44;;;;;;;;;0.00;0.00;;;;;15.02;81.51;102292.47;4993578;28;45199;-80
2024/01/24 06:43:11;;;;;;;;;0.00;0.00;;;;;14.81;82.02;102273.75;4994502;28;45453;-81
2024/01/24 06:45:36;;;;;;;;;0.00;0.00;;;;;14.40;82.02;102211.25;4982616;28;44921;-84
2024/01/24 06:48:01;;;;;;;;;0.00;0.00;;;;;13.94;82.17;102123.44;4990830;28;44959;-82
2024/01/24 06:50:29;;;;;;;;;0.00;0.00;;;;;14.67;82.43;102255.38;4995547;28;45199;-81
2024/01/24 06:52:54;;;;;;;;;0.75;0.00;;;;;14.95;81.84;102312.72;4975503;28;47286;-82
2024/01/24 06:55:20;;;;;;;;;0.00;0.00;;;;;14.18;82.03;102206.06;4995340;28;45193;-81
2024/01/24 06:57:45;;;;;;;;;0.00;0.00;;;;;14.94;81.49;102321.72;4989092;28;45668;-80
2024/01/24 07:00:11;;;;;;;;;0.00;0.00;;;;;14.46;81.40;102250.06;4986170;28;45274;-85
2024/01/24 07:02:36;;;;;;;;;0.25;0.00;;;;;14.59;81.17;102272.09;4982195;28;46722;-82
2024/01/24 07:05:03;;;;;;;;;0.00;0.00;;;;;14.85;80.79;102334.09;4985601;28;45363;-83
2024/01/24 07:07:29;;;;;;;;;0.00;0.00;;;;;14.43;80.95;102251.19;4984602;28;45344;-83
2024/01/24 07:09:55;;;;;;;;;0.00;0.00;;;;;14.83;80.59;102325.34;4982625;28;45422;-81
2024/01/24 07:12:20;;;;;;;;;0.00;0.00;;;;;14.51;80.02;102277.28;4980801;28;46744;-83
2024/01/24 07:14:48;;;;;;;;;1.00;0.00;;;;;14.83;80.11;102334.25;4980138;28;45291;-81
2024/01/24 07:17:13;;;;;;;;;0.00;0.00;;;;;14.55;79.77;102290.25;4983716;28;45325;-81
2024/01/24 07:19:39;;;;;;;;;1.00;1.00;;;;;14.84;79.53;102338.63;4965931;28;45564;-86
2024/01/24 07:22:04;;;;;;;;;0.00;0.00;;;;;14.83;79.39;102326.22;4982892;28;45429;-82
2024/01/24 07:24:31;;;;;;;;;0.00;0.00;;;;;14.31;78.75;102250.38;4981728;28;45405;-85
2024/01/24 07:26:57;;;;;;;;;0.00;0.00;;;;;13.94;78.64;102195.63;4983021;28;45345;-83
2024/01/24 07:29:22;;;;;;;;;0.00;0.00;;;;;14.53;78.34;102302.06;4980240;28;45286;-86
2024/01/24 07:31:48;;;;;;;;;0.00;0.00;;;;;14.71;78.50;102340.63;4980898;28;46690;-84
2024/01/24 07:34:14;;;;;;;;;2.00;1.00;;;;;14.68;78.48;102340.06;4980830;28;45626;-83
2024/01/24 07:36:40;;;;;;;;;1.75;1.00;;;;;14.61;78.63;102337.88;4960397;28;45385;-84
2024/01/24 07:39:06;;;;;;;;;0.00;0.00;;;;;14.44;78.24;102313.56;4979337;28;45475;-83
2024/01/24 07:41:32;;;;;;;;;0.00;0.00;;;;;14.27;78.40;102302.44;4981463;28;46202;-84
2024/01/24 07:43:59;;;;;;;;;0.00;0.00;;;;;13.93;78.49;102255.44;4980008;28;44833;-85
2024/01/24 07:46:25;;;;;;;;;1.00;0.00;;;;;14.49;78.07;102346.97;4981424;28;44886;-83
2024/01/24 07:48:50;;;;;;;;;0.50;0.00;;;;;13.50;78.01;102205.56;4981999;28;45275;-84
2024/01/24 07:51:16;;;;;;;;;1.50;0.00;;;;;13.67;77.71;102261.16;4981526;28;45411;-84
2024/01/24 07:53:43;;;;;;;;;0.75;0.75;;;;;13.76;78.15;102270.22;4982572;28;45457;-83
2024/01/24 07:56:10;;;;;;;;;1.00;1.00;;;;;13.81;78.10;102280.50;4963803;28;45310;-82
2024/01/24 07:58:39;;;;;;;;;0.00;0.00;;;;;14.11;77.47;102342.16;4977643;28;45412;-82
2024/01/24 08:01:05;;;;;;;;;0.00;0.00;;;;;13.99;77.70;102330.63;4978682;28;46138;-83
2024/01/24 08:03:31;;;;;;;;;3.00;0.00;;;;;14.39;77.37;102396.84;4963968;28;45555;-81
2024/01/24 08:05:57;;;;;;;;;3.25;3.00;;;;;13.47;77.11;102239.72;4982326;28;45373;-81
2024/01/24 08:08:22;;;;;;;;;1.25;0.50;;;;;14.29;77.18;102393.28;4983273;28;45530;-82
2024/01/24 08:10:47;;;;;;;;;0.00;0.00;;;;;14.42;77.18;102406.47;4944052;28;45960;-81
2024/01/24 08:13:13;;;;;;;;;3.00;3.00;;;;;14.22;77.33;102382.25;4946994;28;45647;-82
2024/01/24 08:15:38;;;;;;;;;1.00;0.25;;;;;14.44;76.99;102425.97;4987546;28;45391;-83
2024/01/24 08:18:04;;;;;;;;;4.25;1.00;;;;;14.46;77.32;102419.50;4989444;28;45442;-80
2024/01/24 08:20:32;;;;;;;;;2.25;2.00;;;;;14.31;76.72;102385.97;4966376;28;46556;-86
2024/01/24 08:22:57;;;;;;;;;0.25;0.25;;;;;14.45;75.50;102411.59;4984579;28;45568;-82
2024/01/24 08:25:23;;;;;;;;;3.00;1.00;;;;;14.06;75.73;102360.41;4969029;28;45423;-87
2024/01/24 08:27:48;;;;;;;;;0.00;0.00;;;;;12.84;75.14;102162.03;4948156;28;45266;-83
2024/01/24 08:30:15;;;;;;;;;0.00;0.00;;;;;14.57;75.43;102435.50;4966274;28;45269;-84
2024/01/24 08:32:42;;;;;;;;;0.50;0.50;;;;;14.38;74.82;102403.19;4965970;28;45401;-84
2024/01/24 08:35:08;;;;;;;;;2.00;2.00;;;;;14.73;74.19;102442.25;4981571;28;45420;-82
2024/01/24 08:37:34;;;;;;;;;1.75;1.25;;;;;14.44;73.70;102388.50;4987644;28;45196;-84
2024/01/24 08:40:00;;;;;;;;;2.00;0.75;;;;;14.84;71.96;102461.78;4983339;28;45359;-87
2024/01/24 08:42:25;;;;;;;;;0.00;0.00;;;;;14.88;71.82;102463.22;4983706;28;45511;-83
2024/01/24 08:44:51;;;;;;;;;0.00;0.00;;;;;14.72;71.16;102425.34;4984385;28;45450;-87
2024/01/24 08:47:18;;;;;;;;;1.00;1.00;;;;;14.65;70.93;102397.38;4966531;28;45571;-88
2024/01/24 08:49:43;;;;;;;;;1.50;1.50;;;;;14.72;70.38;102392.34;4978265;28;45421;-84
2024/01/24 08:52:11;;;;;;;;;2.00;2.00;;;;;15.24;70.24;102485.16;4950797;28;45324;-91
2024/01/24 08:54:37;;;;;;;;;3.00;1.00;;;;;14.13;69.09;102253.75;4957703;28;45445;-86
2024/01/24 08:57:03;;;;;;;;;2.00;1.25;;;;;14.72;68.56;102334.31;4989679;28;45429;-89
2024/01/24 08:59:30;;;;;;;;;4.33;4.00;;;;;14.69;68.48;102296.25;4972444;28;47277;-93
2024/01/24 09:01:57;;;;;;;;;4.00;4.00;;;;;14.85;68.11;102318.03;4991414;28;45378;-87
2024/01/24 09:04:22;;;;;;;;;3.00;2.00;;;;;15.33;67.33;102392.41;4987777;28;45014;-89
2024/01/24 09:06:48;;;;;;;;;1.00;1.00;;;;;15.48;67.18;102429.44;4985048;28;45362;-87
2024/01/24 09:09:14;;;;;;;;;3.50;2.50;;;;;15.04;66.41;102344.91;4980148;28;45563;-83
2024/01/24 09:11:40;;;;;;;;;3.00;3.00;;;;;15.79;65.92;102475.00;4985091;28;45680;-81
2024/01/24 09:14:06;;;;;;;;;3.25;2.00;;;;;15.31;65.99;102379.13;4988177;28;45529;-85
2024/01/24 09:16:32;;;;;;;;;4.25;2.25;;;;;15.56;64.80;102382.31;4987365;28;45302;-82
2024/01/24 09:18:57;;;;;;;;;4.50;3.00;;;;;16.22;64.21;102487.25;4986144;28;45513;-82
2024/01/24 09:21:22;;;;;;;;;4.00;2.67;;;;;16.33;63.38;102375.25;4984686;28;45432;-84
2024/01/24 09:23:49;;;;;;;;;2.00;2.00;;;;;17.99;60.10;102466.03;4984047;28;45445;-83
2024/01/24 09:26:15;;;;;;;;;4.25;2.00;;;;;19.02;57.05;102467.38;4978041;28;45416;-83
2024/01/24 09:28:41;;;;;;;;;3.00;2.00;;;;;19.17;55.11;102376.84;4968607;28;45436;-83
2024/01/24 09:31:06;;;;;;;;;3.75;2.00;;;;;19.26;55.20;102461.31;4968610;28;45480;-87
2024/01/24 09:33:31;;;;;;;;;1.25;0.50;;;;;18.01;56.22;102344.78;4953149;28;45383;-82
2024/01/24 09:35:57;;;;;;;;;4.00;1.00;;;;;18.58;57.23;102485.34;4986180;28;45301;-84
2024/01/24 09:38:22;;;;;;;;;3.75;2.00;;;;;17.74;58.32;102377.97;4997929;28;45442;-84
2024/01/24 09:40:49;;;;;;;;;0.25;0.25;;;;;17.99;57.31;102454.44;4963990;28;44826;-85
2024/01/24 09:43:24;;;;;;;;;3.25;1.75;;;;;18.26;57.96;102528.97;4972269;28;45428;-84
2024/01/24 09:45:50;;;;;;;;;1.75;1.75;;;;;18.05;57.86;102526.53;4957210;28;45318;-81
2024/01/24 09:48:17;;;;;;;;;7.25;3.25;;;;;17.85;58.25;102518.53;4972151;28;46185;-84
2024/01/24 09:50:43;;;;;;;;;3.75;1.75;;;;;17.61;57.89;102521.69;4984398;28;44684;-82
2024/01/24 09:53:15;;;;;;;;;1.00;1.00;;;;;16.45;57.83;102359.88;4956783;28;45297;-82
2024/01/24 09:55:42;;;;;;;;;1.50;1.50;;;;;17.09;57.87;102495.38;4992041;28;44645;-80
2024/01/24 09:58:07;;;;;;;;;1.75;1.75;;;;;16.89;58.94;102483.81;4989622;28;45079;-84
2024/01/24 10:00:33;;;;;;;;;5.00;1.00;;;;;17.07;57.81;102543.91;4966926;28;45313;-81
2024/01/24 10:02:58;;;;;;;;;3.75;2.50;;;;;16.59;58.39;102485.59;4985384;28;45748;-86
2024/01/24 10:05:25;;;;;;;;;3.50;3.50;;;;;16.08;58.20;102424.13;4985897;28;45466;-80
2024/01/24 10:07:51;;;;;;;;;5.67;4.67;;;;;16.72;58.04;102557.88;4985911;28;45384;-86
2024/01/24 10:10:17;;;;;;;;;4.50;1.50;;;;;16.61;57.90;102563.34;4992202;28;45419;-81
2024/01/24 10:12:43;;;;;;;;;3.25;3.00;;;;;16.49;58.77;102559.09;4965169;28;45527;-85
2024/01/24 10:15:10;;;;;;;;;4.00;3.00;;;;;15.78;58.96;102451.84;4974475;28;45404;-84
2024/01/24 10:17:40;;;;;;;;;2.50;2.00;;;;;16.34;59.33;102555.94;5000102;28;46189;-81
2024/01/24 10:20:08;;;;;;;;;2.50;1.50;;;;;16.28;59.09;102556.50;4965944;28;45480;-84
2024/01/24 10:22:34;;;;;;;;;5.00;2.00;;;;;16.22;58.87;102567.75;4969460;28;45366;-83
2024/01/24 10:24:59;;;;;;;;;3.75;1.00;;;;;15.82;58.97;102502.44;4967774;28;45323;-84
2024/01/24 10:27:26;;;;;;;;;3.75;3.00;;;;;15.94;59.03;102538.03;4984052;28;46082;-82
2024/01/24 10:29:51;;;;;;;;;5.00;4.25;;;;;15.42;58.89;102456.78;4963196;28;45380;-82
2024/01/24 10:32:17;;;;;;;;;2.75;1.50;;;;;15.93;58.96;102547.06;4964000;28;45289;-83
2024/01/24 10:34:42;;;;;;;;;4.75;3.75;;;;;16.04;59.09;102581.84;4981249;28;45702;-83
2024/01/24 10:37:08;;;;;;;;;4.75;2.50;;;;;14.88;58.67;102404.31;4984824;28;46005;-83
2024/01/24 10:39:35;;;;;;;;;6.75;4.00;;;;;15.72;58.85;102543.56;4974747;28;44810;-81
2024/01/24 10:42:06;;;;;;;;;3.00;1.50;;;;;15.03;59.12;102433.44;4975196;28;45269;-80
2024/01/24 10:44:33;;;;;;;;;6.75;3.50;;;;;15.16;59.32;102460.84;4964025;28;45400;-82
2024/01/24 10:46:59;;;;;;;;;3.25;2.50;;;;;15.21;59.01;102478.22;4960173;28;45623;-81
2024/01/24 10:49:25;;;;;;;;;4.00;2.00;;;;;15.75;58.91;102596.94;4972346;28;45606;-80
2024/01/24 10:51:51;;;;;;;;;5.25;3.00;;;;;15.71;59.40;102593.69;4977476;28;45518;-83
2024/01/24 10:54:21;;;;;;;;;7.75;3.00;;;;;15.15;58.98;102502.88;5000197;28;45605;-82
2024/01/24 10:56:49;;;;;;;;;2.75;2.75;;;;;15.46;58.62;102559.22;4981404;28;46444;-83
2024/01/24 10:59:15;;;;;;;;;4.25;2.75;;;;;15.11;58.96;102506.78;4967397;28;45419;-83
2024/01/24 11:01:41;;;;;;;;;6.00;4.50;;;;;15.67;58.52;102602.13;4959567;28;45320;-83
2024/01/24 11:04:09;;;;;;;;;4.25;3.00;;;;;14.92;58.77;102461.13;4940438;28;45416;-82
2024/01/24 11:06:41;;;;;;;;;2.25;2.00;;;;;15.56;59.01;102537.81;4960954;28;45442;-83
2024/01/24 11:09:23;;;;;;;;;5.50;4.25;;;;;15.42;58.83;102498.81;4965932;28;45310;-84
2024/01/24 11:11:56;;;;;;;;;4.50;3.50;;;;;15.25;58.54;102449.34;4948310;28;45332;-85
2024/01/24 11:14:29;;;;;;;;;4.00;2.00;;;;;15.97;58.49;102569.94;4962314;28;45540;-83
2024/01/24 11:16:55;;;;;;;;;2.00;2.00;;;;;15.70;57.78;102524.09;4961358;28;45356;-81
2024/01/24 11:19:22;;;;;;;;;6.50;5.50;;;;;16.02;58.00;102565.03;4958010;28;45464;-82